Time;durP1;ratioP1;P1;durP2;ratioP2;P2;SDS_P1;SDS_P2;PMS_P1;PMS_P2;Temp;Humidity;BMP_temperature;BMP_pressure;BME280_temperature;BME280_humidity;BME280_pressure;Samples;Min_cycle;Max_cycle;Signal;HPM_P1;HPM_P2
2023/09/02 00:02:20;;;;;;;14.27;11.48;;;;;;;17.45;100.00;101503.88;5095200;28;20044;-67
2023/09/02 00:05:08;;;;;;;15.60;12.23;;;;;;;17.46;100.00;101510.22;5102314;28;20024;-62
2023/09/02 00:07:56;;;;;;;25.08;12.48;;;;;;;17.46;100.00;101513.81;5138413;27;20058;-62
2023/09/02 00:10:44;;;;;;;16.73;13.02;;;;;;;17.45;100.00;101514.91;5137712;27;20078;-66
2023/09/02 00:13:32;;;;;;;16.92;13.95;;;;;;;17.43;100.00;101511.63;5122915;27;20051;-65
2023/09/02 00:16:20;;;;;;;15.27;11.77;;;;;;;17.41;100.00;101513.03;5150854;27;20043;-64
2023/09/02 00:19:08;;;;;;;16.67;12.63;;;;;;;17.42;100.00;101507.25;5156020;27;20066;-63
2023/09/02 00:21:57;;;;;;;15.90;13.30;;;;;;;17.41;100.00;101505.63;5149843;27;20054;-68
2023/09/02 00:24:45;;;;;;;17.77;14.00;;;;;;;17.40;100.00;101511.41;5135762;27;20044;-66
2023/09/02 00:27:33;;;;;;;15.77;14.05;;;;;;;17.37;100.00;101518.34;5141052;27;20498;-66
2023/09/02 00:30:21;;;;;;;16.58;12.65;;;;;;;17.35;100.00;101520.56;5115591;27;20043;-66
2023/09/02 00:33:10;;;;;;;17.02;13.82;;;;;;;17.35;100.00;101517.00;5139263;27;20046;-66
2023/09/02 00:35:58;;;;;;;15.88;12.63;;;;;;;17.33;100.00;101520.03;5139217;27;20068;-67
2023/09/02 00:38:46;;;;;;;17.35;13.20;;;;;;;17.33;100.00;101530.25;5138111;27;20126;-66
2023/09/02 00:41:50;;;;;;;15.38;12.10;;;;;;;17.35;100.00;101520.56;5109037;27;20414;-66
2023/09/02 00:44:38;;;;;;;15.90;12.68;;;;;;;17.38;100.00;101519.97;5120884;27;20043;-66
2023/09/02 00:47:26;;;;;;;15.20;12.27;;;;;;;17.36;100.00;101516.69;5123306;27;20066;-68
2023/09/02 00:50:14;;;;;;;15.23;12.40;;;;;;;17.36;100.00;101515.88;5108418;27;20156;-66
2023/09/02 00:53:03;;;;;;;14.75;12.10;;;;;;;17.37;100.00;101510.06;5106999;27;20055;-66
2023/09/02 00:55:52;;;;;;;14.88;12.60;;;;;;;17.38;100.00;101514.44;5135629;27;20499;-66
2023/09/02 00:58:41;;;;;;;15.40;12.55;;;;;;;17.37;100.00;101509.25;5122512;27;20392;-66
2023/09/02 01:01:32;;;;;;;16.48;12.60;;;;;;;17.34;100.00;101507.91;5122795;27;20047;-65
2023/09/02 01:04:21;;;;;;;16.60;12.70;;;;;;;17.30;100.00;101512.38;5121983;27;20055;-66
2023/09/02 01:07:09;;;;;;;15.57;13.05;;;;;;;17.28;100.00;101517.34;5102449;27;20391;-67
2023/09/02 01:09:57;;;;;;;16.42;13.07;;;;;;;17.25;100.00;101527.03;5108703;27;20039;-65
2023/09/02 01:12:45;;;;;;;13.70;11.93;;;;;;;17.26;100.00;101522.34;5137397;27;20070;-66
2023/09/02 01:15:34;;;;;;;13.48;11.43;;;;;;;17.27;100.00;101517.63;5122816;27;20508;-66
2023/09/02 01:18:23;;;;;;;14.02;12.05;;;;;;;17.29;100.00;101504.41;5114530;27;20047;-66
2023/09/02 01:21:35;;;;;;;16.60;12.55;;;;;;;17.31;100.00;101516.75;5100007;28;20396;-66
2023/09/02 01:24:45;;;;;;;14.18;11.60;;;;;;;17.33;100.00;101514.53;5116270;28;20046;-66
2023/09/02 01:27:43;;;;;;;15.25;12.30;;;;;;;17.35;100.00;101514.25;5111335;27;20046;-67
2023/09/02 01:30:34;;;;;;;13.98;11.77;;;;;;;17.36;100.00;101527.69;5101068;27;20495;-66
2023/09/02 01:33:26;;;;;;;15.38;13.02;;;;;;;17.37;100.00;101529.34;5109094;27;20104;-66
2023/09/02 01:36:17;;;;;;;15.63;13.10;;;;;;;17.36;100.00;101537.91;5108608;27;20043;-66
2023/09/02 01:39:05;;;;;;;15.68;12.20;;;;;;;17.35;100.00;101530.78;5136405;27;20054;-66
2023/09/02 01:41:54;;;;;;;15.13;11.70;;;;;;;17.34;100.00;101535.47;5106903;27;20131;-66
2023/09/02 01:44:43;;;;;;;16.90;11.88;;;;;;;17.33;100.00;101550.34;5093271;27;20051;-66
2023/09/02 01:47:32;;;;;;;18.55;13.52;;;;;;;17.33;100.00;101544.00;5121569;27;20047;-66
2023/09/02 01:50:23;;;;;;;16.80;13.20;;;;;;;17.31;100.00;101538.78;5102348;27;20135;-66
2023/09/02 01:53:11;;;;;;;18.58;12.63;;;;;;;17.31;100.00;101540.72;5119818;27;20035;-66
2023/09/02 01:56:00;;;;;;;14.73;12.18;;;;;;;17.27;100.00;101536.91;5135378;27;20506;-66
2023/09/02 01:58:50;;;;;;;15.02;12.90;;;;;;;17.24;100.00;101541.09;5108372;27;20409;-68
2023/09/02 02:01:39;;;;;;;16.92;12.43;;;;;;;17.22;100.00;101535.06;5091592;27;20047;-66
2023/09/02 02:04:35;;;;;;;16.83;13.18;;;;;;;17.22;100.00;101543.31;5093354;27;20175;-66
2023/09/02 02:07:28;;;;;;;16.10;12.93;;;;;;;17.22;100.00;101543.31;5093174;27;20055;-67
2023/09/02 02:10:23;;;;;;;14.50;12.13;;;;;;;17.22;100.00;101551.56;5096074;27;20040;-66
2023/09/02 02:13:12;;;;;;;16.55;12.48;;;;;;;17.21;100.00;101552.69;5105741;27;20406;-66
2023/09/02 02:16:01;;;;;;;14.57;12.55;;;;;;;17.22;100.00;101549.66;5107330;27;20053;-66
2023/09/02 02:18:50;;;;;;;15.77;13.13;;;;;;;17.23;100.00;101556.00;5092437;27;20051;-66
2023/09/02 02:21:38;;;;;;;16.80;12.45;;;;;;;17.21;100.00;101544.44;5132331;27;20118;-67
2023/09/02 02:24:26;;;;;;;15.82;12.55;;;;;;;17.18;100.00;101551.34;5118516;27;20608;-66
2023/09/02 02:27:15;;;;;;;17.35;13.35;;;;;;;17.16;100.00;101552.78;5135702;27;20135;-66
2023/09/02 02:30:03;;;;;;;15.88;12.13;;;;;;;17.15;100.00;101556.63;5119869;27;20058;-66
2023/09/02 02:32:51;;;;;;;17.25;13.73;;;;;;;17.13;100.00;101558.88;5119324;27;20050;-67
2023/09/02 02:35:40;;;;;;;18.65;13.10;;;;;;;17.12;100.00;101571.81;5135832;27;20054;-67
2023/09/02 02:38:28;;;;;;;14.90;12.20;;;;;;;17.12;100.00;101571.00;5120811;27;20055;-67
2023/09/02 02:41:16;;;;;;;16.80;12.00;;;;;;;17.14;100.00;101569.56;5133663;27;20039;-67
2023/09/02 02:44:04;;;;;;;15.77;11.75;;;;;;;17.16;100.00;101559.09;5125269;27;20055;-67
2023/09/02 02:46:52;;;;;;;16.17;12.45;;;;;;;17.19;100.00;101564.00;5118631;27;20046;-66
2023/09/02 02:49:41;;;;;;;16.65;12.70;;;;;;;17.18;100.00;101567.06;5133749;27;20055;-66
2023/09/02 02:52:29;;;;;;;16.48;12.18;;;;;;;17.17;100.00;101562.66;5132581;27;20043;-68
2023/09/02 02:55:17;;;;;;;17.27;13.43;;;;;;;17.14;100.00;101561.31;5119363;27;20043;-68
2023/09/02 02:58:06;;;;;;;15.85;12.80;;;;;;;17.11;100.00;101556.41;5105854;27;20126;-67
2023/09/02 03:01:07;;;;;;;16.92;13.38;;;;;;;17.07;100.00;101569.13;5135513;27;20506;-66
2023/09/02 03:03:55;;;;;;;16.27;12.52;;;;;;;17.06;100.00;101577.69;5119582;27;20043;-66
2023/09/02 03:06:44;;;;;;;15.10;12.27;;;;;;;17.07;100.00;101574.63;5105397;27;20047;-66
2023/09/02 03:09:32;;;;;;;14.60;12.20;;;;;;;17.09;100.00;101564.13;5119240;27;20512;-66
2023/09/02 03:12:20;;;;;;;16.67;13.50;;;;;;;17.10;100.00;101567.69;5133560;27;20570;-66
2023/09/02 03:15:10;;;;;;;16.27;13.10;;;;;;;17.06;100.00;101558.41;5118216;28;20047;-67
2023/09/02 03:17:58;;;;;;;16.00;12.95;;;;;;;17.02;100.00;101561.72;5105315;28;20055;-67
2023/09/02 03:20:49;;;;;;;17.98;13.13;;;;;;;17.03;100.00;101568.09;5102190;28;20104;-68
2023/09/02 03:23:37;;;;;;;15.88;12.82;;;;;;;17.04;100.00;101567.78;5098976;28;20109;-67
2023/09/02 03:26:26;;;;;;;15.88;12.90;;;;;;;17.08;100.00;101570.78;5127428;28;20410;-66
2023/09/02 03:29:16;;;;;;;16.73;12.90;;;;;;;17.06;100.00;101561.97;5119510;28;20066;-66
2023/09/02 03:32:04;;;;;;;16.15;13.27;;;;;;;17.02;100.00;101561.72;5105675;28;20046;-66
2023/09/02 03:34:52;;;;;;;17.55;13.10;;;;;;;16.98;100.00;101562.59;5133555;28;20480;-67
2023/09/02 03:37:45;;;;;;;16.83;12.45;;;;;;;16.96;100.00;101560.16;5122476;27;20122;-66
2023/09/02 03:40:34;;;;;;;16.45;11.80;;;;;;;17.00;100.00;101565.91;5108138;27;20168;-67
2023/09/02 03:43:22;;;;;;;16.23;12.35;;;;;;;17.03;100.00;101568.91;5110557;27;20050;-65
2023/09/02 03:46:13;;;;;;;16.42;12.27;;;;;;;17.06;100.00;101559.22;5120117;27;20039;-66
2023/09/02 03:49:03;;;;;;;17.70;12.57;;;;;;;17.07;100.00;101569.13;5123964;27;20113;-66
2023/09/02 03:51:52;;;;;;;14.77;11.23;;;;;;;17.04;100.00;101576.03;5124365;27;20047;-66
2023/09/02 03:54:40;;;;;;;14.85;12.60;;;;;;;17.03;100.00;101576.34;5123281;27;20054;-66
2023/09/02 03:57:30;;;;;;;15.95;11.50;;;;;;;17.02;100.00;101586.50;5123478;27;20088;-66
2023/09/02 04:00:18;;;;;;;17.30;13.35;;;;;;;17.01;100.00;101582.13;5123191;27;20055;-67
2023/09/02 04:03:09;;;;;;;15.30;11.48;;;;;;;17.00;100.00;101582.41;5120793;27;20058;-67
2023/09/02 04:05:57;;;;;;;18.73;12.27;;;;;;;16.99;100.00;101578.84;5136861;27;20051;-67
2023/09/02 04:08:45;;;;;;;17.42;12.35;;;;;;;16.99;100.00;101578.03;5120203;27;20055;-66
2023/09/02 04:11:33;;;;;;;16.67;11.93;;;;;;;16.96;100.00;101584.94;5121822;27;20047;-66
2023/09/02 04:14:22;;;;;;;15.70;12.40;;;;;;;16.97;100.00;101578.31;5107328;27;20043;-66
2023/09/02 04:17:12;;;;;;;12.82;10.88;;;;;;;16.98;100.00;101582.72;5122889;27;20043;-66
2023/09/02 04:20:00;;;;;;;13.27;10.35;;;;;;;17.00;100.00;101591.50;5122246;27;20043;-66
2023/09/02 04:22:50;;;;;;;19.30;11.05;;;;;;;17.01;100.00;101587.63;5123508;27;20044;-66
2023/09/02 04:25:49;;;;;;;15.85;11.32;;;;;;;17.02;100.00;101594.78;5107774;27;20039;-66
2023/09/02 04:28:38;;;;;;;15.75;10.93;;;;;;;17.02;100.00;101597.53;5109167;27;20063;-66
2023/09/02 04:31:27;;;;;;;15.57;10.95;;;;;;;17.03;100.00;101590.91;5122298;27;20043;-67
2023/09/02 04:34:15;;;;;;;15.52;11.18;;;;;;;17.04;100.00;101598.06;5110763;28;20127;-66
2023/09/02 04:37:03;;;;;;;14.55;10.77;;;;;;;17.03;100.00;101596.44;5129649;27;20070;-66
2023/09/02 04:39:52;;;;;;;12.90;10.23;;;;;;;17.02;100.00;101594.78;5122815;27;20407;-66
2023/09/02 04:42:41;;;;;;;14.90;10.90;;;;;;;17.02;100.00;101603.03;5103822;27;20119;-67
2023/09/02 04:45:34;;;;;;;13.18;10.35;;;;;;;16.99;100.00;101606.38;5121162;27;20529;-68
2023/09/02 04:48:24;;;;;;;15.55;10.65;;;;;;;16.97;100.00;101608.59;5116454;27;20043;-66
2023/09/02 04:51:12;;;;;;;14.75;10.30;;;;;;;16.93;100.00;101606.72;5122282;27;20043;-68
2023/09/02 04:54:02;;;;;;;14.77;10.52;;;;;;;16.94;100.00;101605.63;5108326;27;20126;-66
2023/09/02 04:56:50;;;;;;;12.63;10.18;;;;;;;16.95;100.00;101610.81;5106048;27;20039;-67
2023/09/02 04:59:38;;;;;;;12.95;9.57;;;;;;;16.98;100.00;101612.16;5109049;27;20061;-66
2023/09/02 05:02:27;;;;;;;12.93;9.65;;;;;;;16.96;100.00;101612.47;5106157;27;20116;-67
2023/09/02 05:05:19;;;;;;;12.73;9.57;;;;;;;16.96;100.00;101617.16;5107113;27;20113;-66
2023/09/02 05:08:07;;;;;;;11.70;9.25;;;;;;;16.95;100.00;101619.06;5120190;27;20397;-67
2023/09/02 05:10:55;;;;;;;14.65;10.52;;;;;;;16.96;100.00;101617.16;5120617;27;20119;-66
2023/09/02 05:13:44;;;;;;;14.30;10.05;;;;;;;16.93;100.00;101621.31;5135281;27;20062;-67
2023/09/02 05:16:32;;;;;;;12.00;10.35;;;;;;;16.95;100.00;101627.34;5120220;27;20057;-67
2023/09/02 05:19:20;;;;;;;14.57;10.90;;;;;;;16.94;100.00;101625.69;5135315;27;20165;-68
2023/09/02 05:22:09;;;;;;;17.17;10.68;;;;;;;16.91;100.00;101629.03;5136037;27;20051;-67
2023/09/02 05:24:57;;;;;;;13.98;10.15;;;;;;;16.88;100.00;101621.34;5107102;27;20379;-68
2023/09/02 05:27:48;;;;;;;11.23;8.68;;;;;;;16.89;100.00;101625.75;5120205;27;20510;-67
2023/09/02 05:30:36;;;;;;;14.45;10.52;;;;;;;16.92;100.00;101618.84;5135434;27;20126;-67
2023/09/02 05:33:24;;;;;;;14.07;10.77;;;;;;;16.91;100.00;101628.19;5134393;27;20562;-68
2023/09/02 05:36:13;;;;;;;12.82;10.07;;;;;;;16.89;100.00;101634.03;5133590;27;20043;-67
2023/09/02 05:39:01;;;;;;;15.95;11.80;;;;;;;16.91;100.00;101642.81;5106893;27;20112;-67
2023/09/02 05:41:49;;;;;;;13.65;10.50;;;;;;;16.94;100.00;101649.66;5135584;27;20534;-67
2023/09/02 05:44:37;;;;;;;12.73;10.13;;;;;;;16.97;100.00;101652.66;5119888;27;20133;-67
2023/09/02 05:47:26;;;;;;;13.13;9.98;;;;;;;16.98;100.00;101654.31;5133998;27;20047;-66
2023/09/02 05:50:14;;;;;;;14.18;11.27;;;;;;;16.98;100.00;101662.56;5134045;27;20757;-67
2023/09/02 05:53:02;;;;;;;12.98;10.35;;;;;;;16.97;100.00;101658.16;5135166;27;20523;-67
2023/09/02 05:55:54;;;;;;;15.43;10.45;;;;;;;16.96;100.00;101662.03;5119752;27;20121;-67
2023/09/02 05:58:43;;;;;;;15.50;10.07;;;;;;;16.98;100.00;101658.97;5132571;27;20426;-67
2023/09/02 06:01:31;;;;;;;15.60;10.77;;;;;;;16.99;100.00;101661.44;5134792;27;20051;-67
2023/09/02 06:04:19;;;;;;;14.85;10.18;;;;;;;16.98;100.00;101662.56;5106640;27;20078;-67
2023/09/02 06:07:08;;;;;;;13.70;9.52;;;;;;;17.01;100.00;101667.47;5133653;27;20047;-67
2023/09/02 06:09:56;;;;;;;15.70;10.40;;;;;;;17.03;100.00;101673.53;5130626;27;20054;-67
2023/09/02 06:12:44;;;;;;;12.40;9.55;;;;;;;17.04;100.00;101674.34;5131981;27;20262;-67
2023/09/02 06:15:32;;;;;;;16.90;10.48;;;;;;;17.07;100.00;101683.94;5118991;27;20521;-67
2023/09/02 06:18:20;;;;;;;13.07;10.65;;;;;;;17.08;100.00;101685.56;5118371;27;20048;-68
2023/09/02 06:21:13;;;;;;;10.80;7.63;;;;;;;17.06;100.00;101685.88;5115893;27;20461;-65
2023/09/02 06:24:01;;;;;;;13.07;9.18;;;;;;;17.10;100.00;101695.22;5097995;27;20521;-66
2023/09/02 06:26:50;;;;;;;14.05;9.95;;;;;;;17.12;100.00;101695.72;5119863;27;20039;-66
2023/09/02 06:29:38;;;;;;;14.18;10.85;;;;;;;17.13;100.00;101705.63;5137177;27;20066;-66
2023/09/02 06:32:26;;;;;;;15.70;11.35;;;;;;;17.11;100.00;101696.03;5132802;27;20499;-67
2023/09/02 06:35:15;;;;;;;16.90;12.98;;;;;;;17.09;100.00;101710.06;5125635;27;20050;-67
2023/09/02 06:38:03;;;;;;;18.23;12.75;;;;;;;17.09;100.00;101714.78;5119512;27;20312;-67
2023/09/02 06:40:51;;;;;;;19.17;12.57;;;;;;;17.06;100.00;101720.88;5132136;27;20047;-67
2023/09/02 06:43:39;;;;;;;20.70;13.85;;;;;;;16.99;100.00;101708.25;5133642;27;20051;-66
2023/09/02 06:46:28;;;;;;;19.60;13.68;;;;;;;16.99;100.00;101715.69;5121148;27;20051;-67
2023/09/02 06:49:16;;;;;;;18.80;13.93;;;;;;;17.00;100.00;101718.16;5114346;28;20071;-66
2023/09/02 06:52:04;;;;;;;21.17;14.52;;;;;;;17.01;100.00;101725.31;5134802;27;20043;-66
2023/09/02 06:54:52;;;;;;;20.23;15.77;;;;;;;17.02;100.00;101735.19;5119733;27;20046;-69
2023/09/02 06:57:44;;;;;;;19.05;15.85;;;;;;;17.02;100.00;101743.44;5119357;27;20071;-66
2023/09/02 07:00:36;;;;;;;19.75;16.25;;;;;;;16.99;100.00;101744.03;5117790;27;20035;-66
2023/09/02 07:03:24;;;;;;;23.67;17.35;;;;;;;16.99;100.00;101748.72;5135371;27;20518;-68
2023/09/02 07:06:14;;;;;;;19.02;15.90;;;;;;;17.03;100.00;101761.63;5133407;27;20047;-68
2023/09/02 07:09:03;;;;;;;22.52;15.70;;;;;;;17.09;100.00;101764.34;5117581;27;20055;-67
2023/09/02 07:11:52;;;;;;;19.85;16.15;;;;;;;17.12;100.00;101770.06;5117533;27;20043;-67
2023/09/02 07:14:40;;;;;;;17.70;14.80;;;;;;;17.12;100.00;101774.75;5126221;27;20383;-67
2023/09/02 07:17:28;;;;;;;22.30;16.20;;;;;;;17.10;100.00;101779.72;5119360;28;20384;-67
2023/09/02 07:20:16;;;;;;;16.55;14.30;;;;;;;17.09;100.00;101778.09;5135072;28;20039;-67
2023/09/02 07:23:05;;;;;;;18.48;15.50;;;;;;;17.12;100.00;101783.03;5133210;28;20042;-66
2023/09/02 07:25:53;;;;;;;16.23;13.27;;;;;;;17.13;100.00;101787.44;5131743;28;20040;-67
2023/09/02 07:28:42;;;;;;;14.32;11.82;;;;;;;17.14;100.00;101787.13;5119592;28;20039;-67
2023/09/02 07:31:30;;;;;;;16.63;12.38;;;;;;;17.19;100.00;101797.28;5133998;28;20084;-66
2023/09/02 07:34:18;;;;;;;16.65;12.60;;;;;;;17.24;100.00;101816.50;5106041;28;20054;-67
2023/09/02 07:37:07;;;;;;;18.13;13.55;;;;;;;17.27;100.00;101804.09;5135211;27;20391;-67
2023/09/02 07:39:55;;;;;;;21.17;15.32;;;;;;;17.29;100.00;101808.19;5119495;28;20061;-68
2023/09/02 07:42:43;;;;;;;22.30;15.38;;;;;;;17.30;100.00;101809.88;5134321;28;20406;-66
2023/09/02 07:45:31;;;;;;;22.17;15.80;;;;;;;17.31;100.00;101811.50;5134320;28;20047;-67
2023/09/02 07:48:19;;;;;;;22.23;17.38;;;;;;;17.32;100.00;101818.66;5132708;28;20050;-67
2023/09/02 07:51:07;;;;;;;23.92;17.67;;;;;;;17.35;100.00;101822.78;5124659;28;20046;-66
2023/09/02 07:53:56;;;;;;;24.17;18.48;;;;;;;17.35;100.00;101822.78;5132222;28;20142;-67
2023/09/02 07:56:44;;;;;;;24.40;17.88;;;;;;;17.36;100.00;101819.72;5134567;28;20047;-67
2023/09/02 07:59:32;;;;;;;21.80;15.02;;;;;;;17.38;100.00;101838.72;5134292;28;20418;-68
2023/09/02 08:02:20;;;;;;;19.83;14.68;;;;;;;17.41;100.00;101835.38;5133763;28;20050;-67
2023/09/02 08:05:09;;;;;;;20.10;15.43;;;;;;;17.44;100.00;101832.06;5133986;28;20039;-66
2023/09/02 08:07:57;;;;;;;24.20;18.05;;;;;;;17.47;100.00;101836.97;5118641;28;20430;-67
2023/09/02 08:10:45;;;;;;;24.48;17.60;;;;;;;17.48;100.00;101833.09;5133904;28;20050;-67
2023/09/02 08:13:33;;;;;;;24.80;17.83;;;;;;;17.46;100.00;101825.16;5133029;28;20042;-66
2023/09/02 08:16:21;;;;;;;19.38;14.75;;;;;;;17.44;100.00;101837.56;5135012;28;20126;-66
2023/09/02 08:19:10;;;;;;;18.85;15.77;;;;;;;17.45;100.00;101842.78;5132942;28;20046;-66
2023/09/02 08:21:58;;;;;;;20.50;16.30;;;;;;;17.54;100.00;101855.94;5132396;27;20047;-66
2023/09/02 08:24:46;;;;;;;17.85;14.02;;;;;;;17.53;100.00;101851.53;5137427;27;20100;-66
2023/09/02 08:27:34;;;;;;;22.65;16.52;;;;;;;17.52;100.00;101852.66;5136168;27;20088;-67
2023/09/02 08:30:22;;;;;;;20.30;16.58;;;;;;;17.53;100.00;101849.59;5136988;27;20143;-66
2023/09/02 08:33:10;;;;;;;25.15;17.38;;;;;;;17.55;100.00;101841.84;5136197;27;20039;-66
2023/09/02 08:35:58;;;;;;;20.27;14.93;;;;;;;17.50;100.00;101841.91;5122361;27;20099;-66
2023/09/02 08:38:46;;;;;;;21.15;14.07;;;;;;;17.46;100.00;101838.06;5138229;27;20047;-66
2023/09/02 08:41:36;;;;;;;22.63;14.43;;;;;;;17.43;100.00;101841.41;5136271;27;20051;-66
2023/09/02 08:44:27;;;;;;;18.80;15.25;;;;;;;17.44;100.00;101846.66;5119306;27;20059;-67
2023/09/02 08:47:17;;;;;;;21.95;17.10;;;;;;;17.40;100.00;101848.34;5093248;27;20050;-66
2023/09/02 08:50:08;;;;;;;24.10;17.52;;;;;;;17.37;100.00;101853.63;5121811;27;20092;-67
2023/09/02 08:52:56;;;;;;;22.02;14.93;;;;;;;17.35;100.00;101850.31;5097174;28;20119;-67
2023/09/02 08:55:46;;;;;;;20.55;16.00;;;;;;;17.35;100.00;101850.31;5115794;27;20092;-68
2023/09/02 08:58:34;;;;;;;26.25;14.60;;;;;;;17.33;100.00;101847.03;5122244;27;20076;-68
2023/09/02 09:01:23;;;;;;;21.42;15.38;;;;;;;17.33;100.00;101853.34;5120688;27;20126;-67
2023/09/02 09:04:15;;;;;;;20.20;15.98;;;;;;;17.36;100.00;101858.28;5102722;28;20044;-68
2023/09/02 09:07:04;;;;;;;20.75;14.75;;;;;;;17.39;100.00;101876.16;5101580;28;20089;-69
2023/09/02 09:09:53;;;;;;;19.30;14.30;;;;;;;17.43;100.00;101874.47;5109574;27;20039;-68
2023/09/02 09:12:43;;;;;;;22.33;16.02;;;;;;;17.45;100.00;101878.59;5120195;27;20051;-67
2023/09/02 09:15:33;;;;;;;20.02;14.85;;;;;;;17.46;100.00;101880.25;5107435;27;20039;-66
2023/09/02 09:18:21;;;;;;;19.75;15.20;;;;;;;17.52;100.00;101886.53;5132922;27;20035;-68
2023/09/02 09:21:09;;;;;;;23.05;17.33;;;;;;;17.53;100.00;101884.59;5087545;27;20039;-67
2023/09/02 09:23:57;;;;;;;25.63;19.70;;;;;;;17.59;100.00;101877.94;5093607;27;20047;-67
2023/09/02 09:26:46;;;;;;;22.33;18.45;;;;;;;17.66;100.00;101881.19;5119496;27;20058;-66
2023/09/02 09:29:41;;;;;;;25.77;18.52;;;;;;;17.66;100.00;101883.94;5120367;27;20438;-66
2023/09/02 09:32:31;;;;;;;24.08;17.67;;;;;;;17.64;100.00;101880.66;5118323;27;20043;-67
2023/09/02 09:35:22;;;;;;;28.25;21.55;;;;;;;17.67;100.00;101880.06;5115482;28;20040;-67
2023/09/02 09:38:10;;;;;;;26.48;21.90;;;;;;;17.70;100.00;101881.41;5124999;27;20494;-67
2023/09/02 09:40:58;;;;;;;26.25;20.00;;;;;;;17.74;100.00;101901.78;5136288;27;20043;-68
2023/09/02 09:44:06;;;;;;;26.17;20.15;;;;;;;17.80;100.00;101906.16;5135285;27;20057;-68
2023/09/02 09:46:54;;;;;;;25.13;20.42;;;;;;;17.82;100.00;101910.28;5121918;27;20085;-68
2023/09/02 09:49:42;;;;;;;30.30;21.63;;;;;;;17.82;100.00;101915.78;5134262;27;20642;-69
2023/09/02 09:52:30;;;;;;;29.00;23.33;;;;;;;17.83;100.00;101922.94;5136038;27;20392;-68
2023/09/02 09:55:25;;;;;;;26.10;20.52;;;;;;;17.83;100.00;101928.47;5120634;27;20078;-70
2023/09/02 09:58:22;;;;;;;26.08;20.52;;;;;;;17.85;100.00;101929.00;5106714;27;20047;-70
2023/09/02 10:01:11;;;;;;;29.95;23.00;;;;;;;17.86;100.00;101935.31;5120361;27;20047;-69
2023/09/02 10:04:08;;;;;;;27.05;21.90;;;;;;;17.81;100.00;101941.69;5102356;27;20165;-70
2023/09/02 10:07:03;;;;;;;27.45;21.02;;;;;;;17.83;100.00;101950.50;5119267;27;20126;-70
2023/09/02 10:09:53;;;;;;;24.15;21.08;;;;;;;17.87;100.00;101946.06;5118815;27;20039;-69
2023/09/02 10:12:42;;;;;;;23.95;18.73;;;;;;;17.86;100.00;101949.09;5107593;27;20039;-69
2023/09/02 10:15:31;;;;;;;27.25;22.85;;;;;;;17.90;100.00;101954.88;5104693;27;20043;-69
2023/09/02 10:18:19;;;;;;;24.38;20.30;;;;;;;17.91;100.00;101954.56;5119151;27;20415;-69
2023/09/02 10:21:07;;;;;;;25.27;21.17;;;;;;;17.93;100.00;101957.06;5120167;27;20487;-69
2023/09/02 10:23:59;;;;;;;27.92;22.30;;;;;;;17.93;100.00;101949.59;5119477;27;20737;-69
2023/09/02 10:26:51;;;;;;;27.95;21.90;;;;;;;17.92;100.00;101958.16;5120060;27;20039;-69
2023/09/02 10:29:45;;;;;;;25.38;21.73;;;;;;;17.97;100.00;101961.69;5135044;27;20129;-69
2023/09/02 10:32:41;;;;;;;24.40;21.38;;;;;;;17.99;100.00;101958.63;5120904;27;20039;-68
2023/09/02 10:35:31;;;;;;;24.20;21.55;;;;;;;18.00;100.00;101963.88;4394032;27;10021578;-67
2023/09/02 10:38:21;;;;;;;23.45;20.35;;;;;;;18.03;100.00;101965.22;5094950;28;20059;-68
2023/09/02 10:41:12;;;;;;;25.48;21.77;;;;;;;18.08;100.00;101962.41;5082295;28;20052;-68
2023/09/02 10:44:01;;;;;;;25.25;22.48;;;;;;;18.16;100.00;101969.22;5107619;27;20047;-68
2023/09/02 10:46:50;;;;;;;25.63;21.42;;;;;;;18.19;100.00;101979.69;5097457;28;20066;-68
2023/09/02 10:49:42;;;;;;;25.05;22.33;;;;;;;18.20;100.00;101970.28;5082070;28;20786;-68
2023/09/02 10:52:30;;;;;;;25.00;21.98;;;;;;;18.20;100.00;101987.66;5095805;28;20043;-67
2023/09/02 10:55:18;;;;;;;29.92;21.90;;;;;;;18.21;100.00;101986.56;5128314;27;20054;-67
2023/09/02 10:58:06;;;;;;;23.90;20.13;;;;;;;18.20;100.00;101982.16;5116254;27;20114;-67
2023/09/02 11:00:54;;;;;;;24.25;20.23;;;;;;;18.18;100.00;101984.38;5130584;27;20414;-68
2023/09/02 11:03:51;;;;;;;23.38;20.77;;;;;;;18.13;100.00;101978.91;5114428;27;20146;-68
2023/09/02 11:07:18;;;;;;;24.33;20.80;;;;;;;18.16;100.00;101981.09;5094927;28;20089;-68
2023/09/02 11:10:09;;;;;;;24.17;20.65;;;;;;;18.18;100.00;101972.53;5123666;27;20054;-69
2023/09/02 11:13:00;;;;;;;25.77;20.92;;;;;;;18.22;100.00;101985.44;5102806;27;20813;-68
2023/09/02 11:16:13;;;;;;;24.02;20.30;;;;;;;18.29;100.00;101982.34;5128610;27;20164;-67
2023/09/02 11:19:01;;;;;;;23.42;20.85;;;;;;;18.25;100.00;101984.84;5101992;28;20047;-68
2023/09/02 11:21:49;;;;;;;23.73;19.95;;;;;;;18.26;100.00;101985.69;5130236;28;20514;-69
2023/09/02 11:24:48;;;;;;;22.50;19.45;;;;;;;18.37;100.00;101986.41;5095020;28;20048;-69
2023/09/02 11:27:46;;;;;;;20.27;17.48;;;;;;;18.42;100.00;101975.31;5116082;28;20399;-68
2023/09/02 11:30:38;;;;;;;23.85;20.35;;;;;;;18.50;100.00;101980.19;5131662;28;20047;-69
2023/09/02 11:33:26;;;;;;;25.45;19.30;;;;;;;18.54;100.00;101986.75;5116789;28;20340;-69
2023/09/02 11:36:19;;;;;;;26.40;21.52;;;;;;;18.55;100.00;101985.66;5119109;28;20093;-68
2023/09/02 11:39:07;;;;;;;28.30;20.33;;;;;;;18.57;100.00;101983.41;5131746;28;20517;-68
2023/09/02 11:42:09;;;;;;;27.20;23.02;;;;;;;18.58;100.00;101987.00;5110394;28;20491;-68
2023/09/02 11:45:00;;;;;;;32.60;24.23;;;;;;;18.57;100.00;101994.47;5127697;28;20047;-68
2023/09/02 11:47:49;;;;;;;28.83;23.75;;;;;;;18.55;100.00;101991.16;5130761;28;20078;-68
2023/09/02 11:50:38;;;;;;;30.40;24.40;;;;;;;18.53;100.00;101990.63;5130297;28;20047;-68
2023/09/02 11:53:28;;;;;;;29.52;24.08;;;;;;;18.55;100.00;102002.22;5127806;28;20058;-68
2023/09/02 11:56:16;;;;;;;32.00;24.63;;;;;;;18.57;100.00;102010.19;5108843;28;20054;-68
2023/09/02 11:59:04;;;;;;;29.52;25.27;;;;;;;18.59;100.00;102000.53;5114232;28;20039;-67
2023/09/02 12:02:19;;;;;;;29.42;23.77;;;;;;;18.63;100.00;102009.03;5112704;28;20055;-68
2023/09/02 12:05:07;;;;;;;26.13;19.90;;;;;;;18.66;100.00;102005.66;5114037;28;20059;-67
2023/09/02 12:07:55;;;;;;;28.08;21.02;;;;;;;18.72;100.00;102013.59;5101316;28;20117;-69
2023/09/02 12:10:47;;;;;;;27.63;22.88;;;;;;;18.79;100.00;102023.50;5114300;28;20040;-68
2023/09/02 12:13:36;;;;;;;27.58;22.65;;;;;;;18.85;100.00;102030.59;5113698;28;20040;-69
2023/09/02 12:16:24;;;;;;;31.95;24.55;;;;;;;18.88;100.00;102033.63;5098680;28;20047;-69
2023/09/02 12:19:12;;;;;;;23.63;20.10;;;;;;;18.84;100.00;102048.31;5083727;28;20104;-68
2023/09/02 12:22:00;;;;;;;24.45;20.42;;;;;;;18.83;100.00;102053.00;5114226;28;20073;-68
2023/09/02 12:24:48;;;;;;;24.85;19.75;;;;;;;18.84;100.00;102051.06;5088920;28;20043;-68
2023/09/02 12:27:36;;;;;;;22.23;18.17;;;;;;;18.87;100.00;102056.00;5112032;28;20468;-68
2023/09/02 12:30:31;;;;;;;24.00;19.77;;;;;;;18.91;100.00;102059.81;5112118;28;20044;-68
2023/09/02 12:33:19;;;;;;;26.88;20.45;;;;;;;18.93;100.00;102061.16;5111249;28;20043;-69
2023/09/02 12:36:07;;;;;;;27.65;20.60;;;;;;;18.92;100.00;102053.16;5113885;28;20046;-69
2023/09/02 12:38:55;;;;;;;25.73;19.98;;;;;;;18.93;100.00;102054.81;5112725;28;20060;-69
2023/09/02 12:41:44;;;;;;;28.80;22.42;;;;;;;18.93;100.00;102061.16;5109626;28;20051;-68
2023/09/02 12:44:32;;;;;;;32.97;24.33;;;;;;;18.92;100.00;102062.25;5106216;28;20054;-69